sensor_id;sensor_type;location;lat;lon;timestamp;temperature;humidity
46784;DHT22;32544;52.832;13.816;2024-03-22T00:00:15;23.50;47.50
46784;DHT22;32544;52.832;13.816;2024-03-22T00:01:15;23.50;47.50
46784;DHT22;32544;52.832;13.816;2024-03-22T00:02:16;23.50;47.60
46784;DHT22;32544;52.832;13.816;2024-03-22T00:03:16;23.50;47.60
46784;DHT22;32544;52.832;13.816;2024-03-22T00:04:19;23.50;47.60
46784;DHT22;32544;52.832;13.816;2024-03-22T00:05:19;23.60;47.60
46784;DHT22;32544;52.832;13.816;2024-03-22T00:06:21;23.50;47.60
46784;DHT22;32544;52.832;13.816;2024-03-22T00:07:22;23.60;47.60
46784;DHT22;32544;52.832;13.816;2024-03-22T00:08:23;23.50;47.50
46784;DHT22;32544;52.832;13.816;2024-03-22T00:09:24;23.50;47.50
46784;DHT22;32544;52.832;13.816;2024-03-22T00:10:24;23.50;47.60
46784;DHT22;32544;52.832;13.816;2024-03-22T00:11:25;23.50;47.50
46784;DHT22;32544;52.832;13.816;2024-03-22T00:12:25;23.50;47.60
46784;DHT22;32544;52.832;13.816;2024-03-22T00:13:26;23.50;47.50
46784;DHT22;32544;52.832;13.816;2024-03-22T00:14:26;23.50;47.60
46784;DHT22;32544;52.832;13.816;2024-03-22T00:15:27;23.50;47.60
46784;DHT22;32544;52.832;13.816;2024-03-22T00:16:27;23.50;47.60
46784;DHT22;32544;52.832;13.816;2024-03-22T00:17:28;23.50;47.60
46784;DHT22;32544;52.832;13.816;2024-03-22T00:18:30;23.50;47.50
46784;DHT22;32544;52.832;13.816;2024-03-22T00:19:31;23.50;47.50
46784;DHT22;32544;52.832;13.816;2024-03-22T00:20:32;23.50;47.50
46784;DHT22;32544;52.832;13.816;2024-03-22T00:21:32;23.50;47.60
46784;DHT22;32544;52.832;13.816;2024-03-22T00:22:33;23.50;47.50
46784;DHT22;32544;52.832;13.816;2024-03-22T00:23:33;23.50;47.50
46784;DHT22;32544;52.832;13.816;2024-03-22T00:24:34;23.50;47.50
46784;DHT22;32544;52.832;13.816;2024-03-22T00:25:35;23.50;47.60
46784;DHT22;32544;52.832;13.816;2024-03-22T00:26:35;23.50;47.50
46784;DHT22;32544;52.832;13.816;2024-03-22T00:27:36;23.50;48.20
46784;DHT22;32544;52.832;13.816;2024-03-22T00:28:36;23.50;47.50
46784;DHT22;32544;52.832;13.816;2024-03-22T00:29:37;23.50;47.60
46784;DHT22;32544;52.832;13.816;2024-03-22T00:30:37;23.50;47.50
46784;DHT22;32544;52.832;13.816;2024-03-22T00:31:38;23.50;47.50
46784;DHT22;32544;52.832;13.816;2024-03-22T00:32:38;23.50;47.50
46784;DHT22;32544;52.832;13.816;2024-03-22T00:33:39;23.50;47.50
46784;DHT22;32544;52.832;13.816;2024-03-22T00:34:39;23.50;47.60
46784;DHT22;32544;52.832;13.816;2024-03-22T00:35:40;23.50;47.80
46784;DHT22;32544;52.832;13.816;2024-03-22T00:36:41;23.50;47.50
46784;DHT22;32544;52.832;13.816;2024-03-22T00:37:41;23.50;47.60
46784;DHT22;32544;52.832;13.816;2024-03-22T00:38:42;23.50;47.50
46784;DHT22;32544;52.832;13.816;2024-03-22T00:39:42;23.50;47.50
46784;DHT22;32544;52.832;13.816;2024-03-22T00:40:43;23.50;47.50
46784;DHT22;32544;52.832;13.816;2024-03-22T00:41:43;23.50;47.50
46784;DHT22;32544;52.832;13.816;2024-03-22T00:42:44;23.50;47.50
46784;DHT22;32544;52.832;13.816;2024-03-22T00:43:44;23.50;47.50
46784;DHT22;32544;52.832;13.816;2024-03-22T00:44:45;23.50;47.50
46784;DHT22;32544;52.832;13.816;2024-03-22T00:45:46;23.50;47.50
46784;DHT22;32544;52.832;13.816;2024-03-22T00:46:46;23.50;47.50
46784;DHT22;32544;52.832;13.816;2024-03-22T00:47:47;23.50;47.50
46784;DHT22;32544;52.832;13.816;2024-03-22T00:48:47;23.50;47.50
46784;DHT22;32544;52.832;13.816;2024-03-22T00:49:48;23.50;47.50
46784;DHT22;32544;52.832;13.816;2024-03-22T00:50:48;23.50;47.50
46784;DHT22;32544;52.832;13.816;2024-03-22T00:51:49;23.50;47.50
46784;DHT22;32544;52.832;13.816;2024-03-22T00:52:50;23.50;47.50
46784;DHT22;32544;52.832;13.816;2024-03-22T00:53:50;23.50;47.50
46784;DHT22;32544;52.832;13.816;2024-03-22T00:54:51;23.50;47.50
46784;DHT22;32544;52.832;13.816;2024-03-22T00:55:52;23.50;47.50
46784;DHT22;32544;52.832;13.816;2024-03-22T00:56:52;23.50;47.50
46784;DHT22;32544;52.832;13.816;2024-03-22T00:57:53;23.50;47.50
46784;DHT22;32544;52.832;13.816;2024-03-22T00:58:53;23.50;47.50
46784;DHT22;32544;52.832;13.816;2024-03-22T00:59:54;23.50;47.50
46784;DHT22;32544;52.832;13.816;2024-03-22T01:00:54;23.50;47.50
46784;DHT22;32544;52.832;13.816;2024-03-22T01:01:55;23.50;47.50
46784;DHT22;32544;52.832;13.816;2024-03-22T01:02:55;23.50;47.50
46784;DHT22;32544;52.832;13.816;2024-03-22T01:03:56;23.50;47.50
46784;DHT22;32544;52.832;13.816;2024-03-22T01:04:56;23.50;47.50
46784;DHT22;32544;52.832;13.816;2024-03-22T01:05:57;23.50;47.50
46784;DHT22;32544;52.832;13.816;2024-03-22T01:06:57;23.50;47.50
46784;DHT22;32544;52.832;13.816;2024-03-22T01:07:59;23.50;47.50
46784;DHT22;32544;52.832;13.816;2024-03-22T01:08:59;23.50;47.50
46784;DHT22;32544;52.832;13.816;2024-03-22T01:10:00;23.50;47.50
46784;DHT22;32544;52.832;13.816;2024-03-22T01:11:01;23.50;47.50
46784;DHT22;32544;52.832;13.816;2024-03-22T01:12:01;23.50;47.50
46784;DHT22;32544;52.832;13.816;2024-03-22T01:13:02;23.50;47.50
46784;DHT22;32544;52.832;13.816;2024-03-22T01:14:02;23.50;47.60
46784;DHT22;32544;52.832;13.816;2024-03-22T01:15:03;23.50;47.50
46784;DHT22;32544;52.832;13.816;2024-03-22T01:16:04;23.50;47.50
46784;DHT22;32544;52.832;13.816;2024-03-22T01:17:04;23.50;47.50
46784;DHT22;32544;52.832;13.816;2024-03-22T01:18:05;23.50;47.50
46784;DHT22;32544;52.832;13.816;2024-03-22T01:19:06;23.50;47.50
46784;DHT22;32544;52.832;13.816;2024-03-22T01:20:06;23.50;47.50
46784;DHT22;32544;52.832;13.816;2024-03-22T01:21:07;23.50;47.50
46784;DHT22;32544;52.832;13.816;2024-03-22T01:22:07;23.50;47.50
46784;DHT22;32544;52.832;13.816;2024-03-22T01:23:08;23.50;47.50
46784;DHT22;32544;52.832;13.816;2024-03-22T01:24:09;23.50;47.50
46784;DHT22;32544;52.832;13.816;2024-03-22T01:25:09;23.50;47.40
46784;DHT22;32544;52.832;13.816;2024-03-22T01:26:10;23.50;47.40
46784;DHT22;32544;52.832;13.816;2024-03-22T01:27:11;23.50;47.40
46784;DHT22;32544;52.832;13.816;2024-03-22T01:28:11;23.50;47.40
46784;DHT22;32544;52.832;13.816;2024-03-22T01:29:13;23.50;47.50
46784;DHT22;32544;52.832;13.816;2024-03-22T01:30:14;23.50;47.40
46784;DHT22;32544;52.832;13.816;2024-03-22T01:31:14;23.50;47.50
46784;DHT22;32544;52.832;13.816;2024-03-22T01:32:16;23.50;47.40
46784;DHT22;32544;52.832;13.816;2024-03-22T01:33:16;23.50;47.40
46784;DHT22;32544;52.832;13.816;2024-03-22T01:34:17;23.50;48.00
46784;DHT22;32544;52.832;13.816;2024-03-22T01:35:18;23.60;47.40
46784;DHT22;32544;52.832;13.816;2024-03-22T01:36:18;23.60;47.50
46784;DHT22;32544;52.832;13.816;2024-03-22T01:37:19;23.60;47.40
46784;DHT22;32544;52.832;13.816;2024-03-22T01:38:19;23.60;47.40
46784;DHT22;32544;52.832;13.816;2024-03-22T01:39:20;23.50;47.30
46784;DHT22;32544;52.832;13.816;2024-03-22T01:40:24;23.60;47.30
46784;DHT22;32544;52.832;13.816;2024-03-22T01:41:24;23.60;47.40
46784;DHT22;32544;52.832;13.816;2024-03-22T01:42:25;23.60;47.40
46784;DHT22;32544;52.832;13.816;2024-03-22T01:43:25;23.60;47.40
46784;DHT22;32544;52.832;13.816;2024-03-22T01:44:29;23.60;47.40
46784;DHT22;32544;52.832;13.816;2024-03-22T01:45:31;23.50;47.40
46784;DHT22;32544;52.832;13.816;2024-03-22T01:46:32;23.50;47.30
46784;DHT22;32544;52.832;13.816;2024-03-22T01:47:33;23.60;47.40
46784;DHT22;32544;52.832;13.816;2024-03-22T01:48:34;23.60;47.30
46784;DHT22;32544;52.832;13.816;2024-03-22T01:49:34;23.60;47.30
46784;DHT22;32544;52.832;13.816;2024-03-22T01:50:35;23.50;47.30
46784;DHT22;32544;52.832;13.816;2024-03-22T01:51:36;23.50;47.30
46784;DHT22;32544;52.832;13.816;2024-03-22T01:52:36;23.60;47.30
46784;DHT22;32544;52.832;13.816;2024-03-22T01:53:37;23.50;47.30
46784;DHT22;32544;52.832;13.816;2024-03-22T01:54:37;23.50;47.30
46784;DHT22;32544;52.832;13.816;2024-03-22T01:55:38;23.50;47.30
46784;DHT22;32544;52.832;13.816;2024-03-22T01:56:39;23.50;47.30
46784;DHT22;32544;52.832;13.816;2024-03-22T01:57:40;23.60;47.30
46784;DHT22;32544;52.832;13.816;2024-03-22T01:58:44;23.50;47.20
46784;DHT22;32544;52.832;13.816;2024-03-22T01:59:44;23.50;47.20
46784;DHT22;32544;52.832;13.816;2024-03-22T02:00:46;23.60;47.30
46784;DHT22;32544;52.832;13.816;2024-03-22T02:01:47;23.60;47.30
46784;DHT22;32544;52.832;13.816;2024-03-22T02:02:49;23.60;47.30
46784;DHT22;32544;52.832;13.816;2024-03-22T02:03:49;23.60;47.30
46784;DHT22;32544;52.832;13.816;2024-03-22T02:04:50;23.60;47.30
46784;DHT22;32544;52.832;13.816;2024-03-22T02:05:51;23.60;47.30
46784;DHT22;32544;52.832;13.816;2024-03-22T02:06:52;23.60;47.20
46784;DHT22;32544;52.832;13.816;2024-03-22T02:07:52;23.60;47.20
46784;DHT22;32544;52.832;13.816;2024-03-22T02:08:53;23.60;47.20
46784;DHT22;32544;52.832;13.816;2024-03-22T02:09:54;23.60;47.20
46784;DHT22;32544;52.832;13.816;2024-03-22T02:10:54;23.60;47.20
46784;DHT22;32544;52.832;13.816;2024-03-22T02:11:55;23.60;47.20
46784;DHT22;32544;52.832;13.816;2024-03-22T02:12:56;23.60;47.20
46784;DHT22;32544;52.832;13.816;2024-03-22T02:13:57;23.60;47.10
46784;DHT22;32544;52.832;13.816;2024-03-22T02:14:57;23.60;47.20
46784;DHT22;32544;52.832;13.816;2024-03-22T02:15:58;23.60;47.20
46784;DHT22;32544;52.832;13.816;2024-03-22T02:16:59;23.60;47.20
46784;DHT22;32544;52.832;13.816;2024-03-22T02:17:59;23.50;47.20
46784;DHT22;32544;52.832;13.816;2024-03-22T02:19:00;23.60;47.10
46784;DHT22;32544;52.832;13.816;2024-03-22T02:20:00;23.60;47.20
46784;DHT22;32544;52.832;13.816;2024-03-22T02:21:01;23.60;47.20
46784;DHT22;32544;52.832;13.816;2024-03-22T02:22:02;23.60;47.10
46784;DHT22;32544;52.832;13.816;2024-03-22T02:23:03;23.60;47.10
46784;DHT22;32544;52.832;13.816;2024-03-22T02:24:03;23.60;47.10
46784;DHT22;32544;52.832;13.816;2024-03-22T02:25:04;23.60;47.10
46784;DHT22;32544;52.832;13.816;2024-03-22T02:26:05;23.60;47.10
46784;DHT22;32544;52.832;13.816;2024-03-22T02:27:06;23.60;47.10
46784;DHT22;32544;52.832;13.816;2024-03-22T02:28:06;23.60;47.10
46784;DHT22;32544;52.832;13.816;2024-03-22T02:29:07;23.60;47.20
46784;DHT22;32544;52.832;13.816;2024-03-22T02:30:07;23.60;47.20
46784;DHT22;32544;52.832;13.816;2024-03-22T02:31:08;23.50;47.20
46784;DHT22;32544;52.832;13.816;2024-03-22T02:32:09;23.50;47.20
46784;DHT22;32544;52.832;13.816;2024-03-22T02:33:10;23.60;47.20
46784;DHT22;32544;52.832;13.816;2024-03-22T02:34:10;23.60;47.20
46784;DHT22;32544;52.832;13.816;2024-03-22T02:35:11;23.60;47.20
46784;DHT22;32544;52.832;13.816;2024-03-22T02:36:11;23.60;47.10
46784;DHT22;32544;52.832;13.816;2024-03-22T02:37:12;23.60;47.10
46784;DHT22;32544;52.832;13.816;2024-03-22T02:38:12;23.60;47.20
46784;DHT22;32544;52.832;13.816;2024-03-22T02:39:13;23.50;47.20
46784;DHT22;32544;52.832;13.816;2024-03-22T02:40:13;23.50;47.10
46784;DHT22;32544;52.832;13.816;2024-03-22T02:41:14;23.60;47.20
46784;DHT22;32544;52.832;13.816;2024-03-22T02:42:14;23.50;47.10
46784;DHT22;32544;52.832;13.816;2024-03-22T02:43:15;23.50;47.10
46784;DHT22;32544;52.832;13.816;2024-03-22T02:44:17;23.50;47.10
46784;DHT22;32544;52.832;13.816;2024-03-22T02:45:18;23.50;47.20
46784;DHT22;32544;52.832;13.816;2024-03-22T02:46:18;23.50;47.20
46784;DHT22;32544;52.832;13.816;2024-03-22T02:47:19;23.50;47.10
46784;DHT22;32544;52.832;13.816;2024-03-22T02:48:20;23.50;47.10
46784;DHT22;32544;52.832;13.816;2024-03-22T02:49:21;23.50;47.10
46784;DHT22;32544;52.832;13.816;2024-03-22T02:50:21;23.50;47.10
46784;DHT22;32544;52.832;13.816;2024-03-22T02:51:22;23.50;47.10
46784;DHT22;32544;52.832;13.816;2024-03-22T02:52:22;23.50;47.10
46784;DHT22;32544;52.832;13.816;2024-03-22T02:53:23;23.50;47.10
46784;DHT22;32544;52.832;13.816;2024-03-22T02:54:23;23.60;47.20
46784;DHT22;32544;52.832;13.816;2024-03-22T02:55:24;23.50;47.10
46784;DHT22;32544;52.832;13.816;2024-03-22T02:56:24;23.50;47.10
46784;DHT22;32544;52.832;13.816;2024-03-22T02:57:25;23.50;47.10
46784;DHT22;32544;52.832;13.816;2024-03-22T02:58:25;23.50;47.10
46784;DHT22;32544;52.832;13.816;2024-03-22T02:59:26;23.50;47.10
46784;DHT22;32544;52.832;13.816;2024-03-22T03:00:27;23.50;47.10
46784;DHT22;32544;52.832;13.816;2024-03-22T03:01:27;23.50;47.10
46784;DHT22;32544;52.832;13.816;2024-03-22T03:02:28;23.50;47.10
46784;DHT22;32544;52.832;13.816;2024-03-22T03:03:28;23.50;47.10
46784;DHT22;32544;52.832;13.816;2024-03-22T03:04:29;23.50;47.10
46784;DHT22;32544;52.832;13.816;2024-03-22T03:05:29;23.50;47.10
46784;DHT22;32544;52.832;13.816;2024-03-22T03:06:30;23.50;47.10
46784;DHT22;32544;52.832;13.816;2024-03-22T03:07:31;23.50;47.10
46784;DHT22;32544;52.832;13.816;2024-03-22T03:08:31;23.50;47.10
46784;DHT22;32544;52.832;13.816;2024-03-22T03:09:32;23.50;47.10
46784;DHT22;32544;52.832;13.816;2024-03-22T03:10:32;23.50;47.10
46784;DHT22;32544;52.832;13.816;2024-03-22T03:11:33;23.50;47.10
46784;DHT22;32544;52.832;13.816;2024-03-22T03:12:33;23.50;47.10
46784;DHT22;32544;52.832;13.816;2024-03-22T03:13:34;23.50;47.10
46784;DHT22;32544;52.832;13.816;2024-03-22T03:14:34;23.50;47.20
46784;DHT22;32544;52.832;13.816;2024-03-22T03:15:35;23.50;47.10
46784;DHT22;32544;52.832;13.816;2024-03-22T03:16:35;23.50;47.10
46784;DHT22;32544;52.832;13.816;2024-03-22T03:17:36;23.50;47.10
46784;DHT22;32544;52.832;13.816;2024-03-22T03:18:36;23.50;47.10
46784;DHT22;32544;52.832;13.816;2024-03-22T03:19:37;23.50;47.10
46784;DHT22;32544;52.832;13.816;2024-03-22T03:20:37;23.50;47.10
46784;DHT22;32544;52.832;13.816;2024-03-22T03:21:38;23.50;47.10
46784;DHT22;32544;52.832;13.816;2024-03-22T03:22:39;23.50;47.20
46784;DHT22;32544;52.832;13.816;2024-03-22T03:23:40;23.50;47.10
46784;DHT22;32544;52.832;13.816;2024-03-22T03:24:40;23.50;47.10
46784;DHT22;32544;52.832;13.816;2024-03-22T03:25:41;23.50;47.10
46784;DHT22;32544;52.832;13.816;2024-03-22T03:26:41;23.50;47.10
46784;DHT22;32544;52.832;13.816;2024-03-22T03:27:42;23.50;47.10
46784;DHT22;32544;52.832;13.816;2024-03-22T03:28:42;23.50;47.10
46784;DHT22;32544;52.832;13.816;2024-03-22T03:29:43;23.50;47.10
46784;DHT22;32544;52.832;13.816;2024-03-22T03:30:44;23.50;47.10
46784;DHT22;32544;52.832;13.816;2024-03-22T03:31:44;23.50;47.10
46784;DHT22;32544;52.832;13.816;2024-03-22T03:32:45;23.50;47.10
46784;DHT22;32544;52.832;13.816;2024-03-22T03:33:45;23.50;47.10
46784;DHT22;32544;52.832;13.816;2024-03-22T03:34:46;23.50;47.10
46784;DHT22;32544;52.832;13.816;2024-03-22T03:35:46;23.50;47.10
46784;DHT22;32544;52.832;13.816;2024-03-22T03:36:47;23.50;47.10
46784;DHT22;32544;52.832;13.816;2024-03-22T03:37:47;23.50;47.10
46784;DHT22;32544;52.832;13.816;2024-03-22T03:38:48;23.50;47.10
46784;DHT22;32544;52.832;13.816;2024-03-22T03:39:49;23.50;47.10
46784;DHT22;32544;52.832;13.816;2024-03-22T03:40:49;23.50;47.10
46784;DHT22;32544;52.832;13.816;2024-03-22T03:41:50;23.50;47.10
46784;DHT22;32544;52.832;13.816;2024-03-22T03:42:50;23.50;47.10
46784;DHT22;32544;52.832;13.816;2024-03-22T03:43:51;23.50;47.10
46784;DHT22;32544;52.832;13.816;2024-03-22T03:44:52;23.50;47.10
46784;DHT22;32544;52.832;13.816;2024-03-22T03:45:52;23.50;47.10
46784;DHT22;32544;52.832;13.816;2024-03-22T03:46:54;23.50;47.10
46784;DHT22;32544;52.832;13.816;2024-03-22T03:47:55;23.50;47.10
46784;DHT22;32544;52.832;13.816;2024-03-22T03:48:55;23.50;47.10
46784;DHT22;32544;52.832;13.816;2024-03-22T03:49:56;23.50;47.10
46784;DHT22;32544;52.832;13.816;2024-03-22T03:50:56;23.50;47.10
46784;DHT22;32544;52.832;13.816;2024-03-22T03:52:03;23.50;47.10
46784;DHT22;32544;52.832;13.816;2024-03-22T03:53:03;23.50;47.70
46784;DHT22;32544;52.832;13.816;2024-03-22T03:54:04;23.50;47.00
46784;DHT22;32544;52.832;13.816;2024-03-22T03:55:04;23.60;47.10
46784;DHT22;32544;52.832;13.816;2024-03-22T03:56:05;23.60;47.00
46784;DHT22;32544;52.832;13.816;2024-03-22T03:57:05;23.60;47.00
46784;DHT22;32544;52.832;13.816;2024-03-22T03:58:06;23.60;47.00
46784;DHT22;32544;52.832;13.816;2024-03-22T03:59:07;23.60;47.00
46784;DHT22;32544;52.832;13.816;2024-03-22T04:00:08;23.60;47.10
46784;DHT22;32544;52.832;13.816;2024-03-22T04:01:09;23.60;47.00
46784;DHT22;32544;52.832;13.816;2024-03-22T04:02:09;23.60;47.00
46784;DHT22;32544;52.832;13.816;2024-03-22T04:03:10;23.60;47.10
46784;DHT22;32544;52.832;13.816;2024-03-22T04:04:11;23.60;47.10
46784;DHT22;32544;52.832;13.816;2024-03-22T04:05:12;23.60;47.10
46784;DHT22;32544;52.832;13.816;2024-03-22T04:06:13;23.60;47.00
46784;DHT22;32544;52.832;13.816;2024-03-22T04:07:13;23.60;47.00
46784;DHT22;32544;52.832;13.816;2024-03-22T04:08:14;23.60;47.00
46784;DHT22;32544;52.832;13.816;2024-03-22T04:09:14;23.60;47.00
46784;DHT22;32544;52.832;13.816;2024-03-22T04:10:15;23.60;47.60
46784;DHT22;32544;52.832;13.816;2024-03-22T04:11:15;23.60;46.90
46784;DHT22;32544;52.832;13.816;2024-03-22T04:12:16;23.60;46.90
46784;DHT22;32544;52.832;13.816;2024-03-22T04:13:17;23.60;46.90
46784;DHT22;32544;52.832;13.816;2024-03-22T04:14:17;23.70;46.90
46784;DHT22;32544;52.832;13.816;2024-03-22T04:15:18;23.60;46.90
46784;DHT22;32544;52.832;13.816;2024-03-22T04:16:18;23.70;46.90
46784;DHT22;32544;52.832;13.816;2024-03-22T04:17:19;23.70;46.90
46784;DHT22;32544;52.832;13.816;2024-03-22T04:18:19;23.70;46.90
46784;DHT22;32544;52.832;13.816;2024-03-22T04:19:20;23.60;46.80
46784;DHT22;32544;52.832;13.816;2024-03-22T04:20:21;23.70;46.90
46784;DHT22;32544;52.832;13.816;2024-03-22T04:21:21;23.70;46.90
46784;DHT22;32544;52.832;13.816;2024-03-22T04:22:22;23.70;46.90
46784;DHT22;32544;52.832;13.816;2024-03-22T04:23:23;23.70;46.80
46784;DHT22;32544;52.832;13.816;2024-03-22T04:24:23;23.70;46.90
46784;DHT22;32544;52.832;13.816;2024-03-22T04:25:24;23.70;46.80
46784;DHT22;32544;52.832;13.816;2024-03-22T04:26:24;23.70;46.90
46784;DHT22;32544;52.832;13.816;2024-03-22T04:27:25;23.70;46.80
46784;DHT22;32544;52.832;13.816;2024-03-22T04:28:29;23.70;46.80
46784;DHT22;32544;52.832;13.816;2024-03-22T04:29:29;23.60;46.80
46784;DHT22;32544;52.832;13.816;2024-03-22T04:30:30;23.70;46.80
46784;DHT22;32544;52.832;13.816;2024-03-22T04:31:30;23.70;46.80
46784;DHT22;32544;52.832;13.816;2024-03-22T04:32:31;23.70;46.80
46784;DHT22;32544;52.832;13.816;2024-03-22T04:33:32;23.70;46.80
46784;DHT22;32544;52.832;13.816;2024-03-22T04:34:32;23.70;46.80
46784;DHT22;32544;52.832;13.816;2024-03-22T04:35:33;23.70;46.80
46784;DHT22;32544;52.832;13.816;2024-03-22T04:36:33;23.70;46.80
46784;DHT22;32544;52.832;13.816;2024-03-22T04:37:34;23.70;46.80
46784;DHT22;32544;52.832;13.816;2024-03-22T04:38:34;23.70;46.80
46784;DHT22;32544;52.832;13.816;2024-03-22T04:39:35;23.70;46.80
46784;DHT22;32544;52.832;13.816;2024-03-22T04:40:36;23.70;46.80
46784;DHT22;32544;52.832;13.816;2024-03-22T04:41:37;23.70;46.80
46784;DHT22;32544;52.832;13.816;2024-03-22T04:42:37;23.70;46.80
46784;DHT22;32544;52.832;13.816;2024-03-22T04:43:38;23.60;46.80
46784;DHT22;32544;52.832;13.816;2024-03-22T04:44:38;23.60;46.80
46784;DHT22;32544;52.832;13.816;2024-03-22T04:45:40;23.60;46.80
46784;DHT22;32544;52.832;13.816;2024-03-22T04:46:41;23.60;46.80
46784;DHT22;32544;52.832;13.816;2024-03-22T04:47:42;23.60;46.80
46784;DHT22;32544;52.832;13.816;2024-03-22T04:48:43;23.60;46.80
46784;DHT22;32544;52.832;13.816;2024-03-22T04:49:44;23.60;46.80
46784;DHT22;32544;52.832;13.816;2024-03-22T04:50:45;23.60;46.80
46784;DHT22;32544;52.832;13.816;2024-03-22T04:51:46;23.60;46.80
46784;DHT22;32544;52.832;13.816;2024-03-22T04:52:46;23.60;46.80
46784;DHT22;32544;52.832;13.816;2024-03-22T04:53:47;23.60;46.80
46784;DHT22;32544;52.832;13.816;2024-03-22T04:54:47;23.60;46.80
46784;DHT22;32544;52.832;13.816;2024-03-22T04:55:48;23.60;46.80
46784;DHT22;32544;52.832;13.816;2024-03-22T04:56:49;23.60;46.90
46784;DHT22;32544;52.832;13.816;2024-03-22T04:57:51;23.60;46.90
46784;DHT22;32544;52.832;13.816;2024-03-22T04:58:52;23.60;46.90
46784;DHT22;32544;52.832;13.816;2024-03-22T04:59:52;23.60;46.90
46784;DHT22;32544;52.832;13.816;2024-03-22T05:00:56;23.60;46.90
46784;DHT22;32544;52.832;13.816;2024-03-22T05:01:57;23.60;46.90
46784;DHT22;32544;52.832;13.816;2024-03-22T05:02:57;23.60;46.90
46784;DHT22;32544;52.832;13.816;2024-03-22T05:03:58;23.60;46.90
46784;DHT22;32544;52.832;13.816;2024-03-22T05:04:58;23.50;46.90
46784;DHT22;32544;52.832;13.816;2024-03-22T05:05:59;23.60;46.90
46784;DHT22;32544;52.832;13.816;2024-03-22T05:06:59;23.50;46.90
46784;DHT22;32544;52.832;13.816;2024-03-22T05:08:00;23.60;46.90
46784;DHT22;32544;52.832;13.816;2024-03-22T05:09:01;23.50;46.90
46784;DHT22;32544;52.832;13.816;2024-03-22T05:10:04;23.50;46.90
46784;DHT22;32544;52.832;13.816;2024-03-22T05:11:04;23.50;46.90
46784;DHT22;32544;52.832;13.816;2024-03-22T05:12:05;23.50;47.00
46784;DHT22;32544;52.832;13.816;2024-03-22T05:13:05;23.50;47.00
46784;DHT22;32544;52.832;13.816;2024-03-22T05:14:06;23.50;47.00
46784;DHT22;32544;52.832;13.816;2024-03-22T05:15:07;23.50;47.00
46784;DHT22;32544;52.832;13.816;2024-03-22T05:16:07;23.50;47.00
46784;DHT22;32544;52.832;13.816;2024-03-22T05:17:08;23.50;47.60
46784;DHT22;32544;52.832;13.816;2024-03-22T05:18:08;23.50;46.90
46784;DHT22;32544;52.832;13.816;2024-03-22T05:19:09;23.50;47.00
46784;DHT22;32544;52.832;13.816;2024-03-22T05:20:09;23.50;47.00
46784;DHT22;32544;52.832;13.816;2024-03-22T05:21:11;23.50;47.00
46784;DHT22;32544;52.832;13.816;2024-03-22T05:22:11;23.50;47.00
46784;DHT22;32544;52.832;13.816;2024-03-22T05:23:12;23.50;47.00
46784;DHT22;32544;52.832;13.816;2024-03-22T05:24:12;23.50;47.00
46784;DHT22;32544;52.832;13.816;2024-03-22T05:25:13;23.50;46.90
46784;DHT22;32544;52.832;13.816;2024-03-22T05:26:15;23.50;46.90
46784;DHT22;32544;52.832;13.816;2024-03-22T05:27:16;23.50;47.00
46784;DHT22;32544;52.832;13.816;2024-03-22T05:28:17;23.50;47.00
46784;DHT22;32544;52.832;13.816;2024-03-22T05:29:17;23.60;47.00
46784;DHT22;32544;52.832;13.816;2024-03-22T05:30:18;23.50;46.90
46784;DHT22;32544;52.832;13.816;2024-03-22T05:31:19;23.50;47.00
46784;DHT22;32544;52.832;13.816;2024-03-22T05:32:19;23.50;46.90
46784;DHT22;32544;52.832;13.816;2024-03-22T05:33:20;23.50;47.00
46784;DHT22;32544;52.832;13.816;2024-03-22T05:34:20;23.50;47.00
46784;DHT22;32544;52.832;13.816;2024-03-22T05:35:21;23.50;47.00
46784;DHT22;32544;52.832;13.816;2024-03-22T05:36:21;23.50;47.00
46784;DHT22;32544;52.832;13.816;2024-03-22T05:37:22;23.50;47.00
46784;DHT22;32544;52.832;13.816;2024-03-22T05:38:22;23.50;47.00
46784;DHT22;32544;52.832;13.816;2024-03-22T05:39:23;23.50;47.00
46784;DHT22;32544;52.832;13.816;2024-03-22T05:40:23;23.50;47.00
46784;DHT22;32544;52.832;13.816;2024-03-22T05:41:24;23.50;47.00
46784;DHT22;32544;52.832;13.816;2024-03-22T05:42:24;23.50;47.00
46784;DHT22;32544;52.832;13.816;2024-03-22T05:43:25;23.50;47.00
46784;DHT22;32544;52.832;13.816;2024-03-22T05:44:25;23.50;47.00
46784;DHT22;32544;52.832;13.816;2024-03-22T05:45:26;23.50;47.00
46784;DHT22;32544;52.832;13.816;2024-03-22T05:46:27;23.50;47.10
46784;DHT22;32544;52.832;13.816;2024-03-22T05:47:27;23.50;47.10
46784;DHT22;32544;52.832;13.816;2024-03-22T05:48:28;23.50;47.10
46784;DHT22;32544;52.832;13.816;2024-03-22T05:49:28;23.50;47.10
46784;DHT22;32544;52.832;13.816;2024-03-22T05:50:29;23.50;47.10
46784;DHT22;32544;52.832;13.816;2024-03-22T05:51:30;23.50;47.10
46784;DHT22;32544;52.832;13.816;2024-03-22T05:52:31;23.50;47.10
46784;DHT22;32544;52.832;13.816;2024-03-22T05:53:31;23.50;47.10
46784;DHT22;32544;52.832;13.816;2024-03-22T05:54:32;23.50;47.10
46784;DHT22;32544;52.832;13.816;2024-03-22T05:55:32;23.50;47.10
46784;DHT22;32544;52.832;13.816;2024-03-22T05:56:33;23.50;47.10
46784;DHT22;32544;52.832;13.816;2024-03-22T05:57:34;23.50;47.10
46784;DHT22;32544;52.832;13.816;2024-03-22T05:58:34;23.50;47.10
46784;DHT22;32544;52.832;13.816;2024-03-22T05:59:36;23.50;47.10
46784;DHT22;32544;52.832;13.816;2024-03-22T06:00:37;23.50;47.10
46784;DHT22;32544;52.832;13.816;2024-03-22T06:01:38;23.50;47.10
46784;DHT22;32544;52.832;13.816;2024-03-22T06:02:39;23.50;47.10
46784;DHT22;32544;52.832;13.816;2024-03-22T06:03:39;23.50;47.10
46784;DHT22;32544;52.832;13.816;2024-03-22T06:04:40;23.50;47.10
46784;DHT22;32544;52.832;13.816;2024-03-22T06:05:41;23.50;47.10
46784;DHT22;32544;52.832;13.816;2024-03-22T06:06:41;23.50;47.10
46784;DHT22;32544;52.832;13.816;2024-03-22T06:07:42;23.50;47.10
46784;DHT22;32544;52.832;13.816;2024-03-22T06:08:44;23.50;47.10
46784;DHT22;32544;52.832;13.816;2024-03-22T06:09:45;23.50;47.20
46784;DHT22;32544;52.832;13.816;2024-03-22T06:10:46;23.50;47.20
46784;DHT22;32544;52.832;13.816;2024-03-22T06:11:46;23.50;47.20
46784;DHT22;32544;52.832;13.816;2024-03-22T06:12:47;23.50;47.20
46784;DHT22;32544;52.832;13.816;2024-03-22T06:13:48;23.50;47.30
46784;DHT22;32544;52.832;13.816;2024-03-22T06:14:48;23.50;47.20
46784;DHT22;32544;52.832;13.816;2024-03-22T06:15:51;23.40;47.20
46784;DHT22;32544;52.832;13.816;2024-03-22T06:16:51;23.50;47.20